Time;durP1;ratioP1;P1;durP2;ratioP2;P2;SDS_P1;SDS_P2;PMS_P1;PMS_P2;Temp;Humidity;BMP_temperature;BMP_pressure;BME280_temperature;BME280_humidity;BME280_pressure;Samples;Min_cycle;Max_cycle;Signal;HPM_P1;HPM_P2
2023/03/04 00:01:15;;;;;;;60.53;21.40;;;1.70;99.90;;;;;;5086334;27;20514;-55
2023/03/04 00:03:42;;;;;;;83.38;30.60;;;1.70;99.90;;;;;;5101745;28;20435;-56
2023/03/04 00:06:09;;;;;;;79.95;32.35;;;1.70;99.90;;;;;;5111117;27;20039;-59
2023/03/04 00:08:36;;;;;;;60.70;22.75;;;1.70;99.90;;;;;;5106389;27;20524;-58
2023/03/04 00:11:03;;;;;;;83.38;31.75;;;1.80;99.90;;;;;;5113903;27;20055;-59
2023/03/04 00:13:30;;;;;;;76.25;30.90;;;1.80;99.90;;;;;;5119074;27;20043;-59
2023/03/04 00:15:57;;;;;;;60.42;23.63;;;1.80;99.90;;;;;;5105423;27;20404;-49
2023/03/04 00:18:23;;;;;;;79.15;29.85;;;1.90;99.90;;;;;;5125670;27;20043;-49
2023/03/04 00:20:50;;;;;;;75.07;28.55;;;1.90;99.90;;;;;;5110579;27;20562;-51
2023/03/04 00:23:17;;;;;;;81.20;27.40;;;1.90;99.90;;;;;;5099390;28;20039;-49
2023/03/04 00:25:44;;;;;;;77.20;28.38;;;1.80;99.90;;;;;;5103937;28;20104;-49
2023/03/04 00:28:10;;;;;;;55.65;20.17;;;1.80;99.90;;;;;;5106223;27;20031;-49
2023/03/04 00:30:37;;;;;;;60.85;25.00;;;1.80;99.90;;;;;;5104687;28;20471;-50
2023/03/04 00:33:04;;;;;;;55.63;20.48;;;1.80;99.90;;;;;;5109472;28;20047;-49
2023/03/04 00:35:31;;;;;;;76.28;28.70;;;1.90;99.90;;;;;;5110054;28;20040;-49
2023/03/04 00:37:57;;;;;;;53.90;21.50;;;1.80;99.90;;;;;;5111389;28;20043;-50
2023/03/04 00:40:24;;;;;;;76.93;29.52;;;1.60;99.90;;;;;;5100219;28;20545;-49
2023/03/04 00:42:51;;;;;;;62.15;21.85;;;1.50;99.90;;;;;;5111452;28;20451;-49
2023/03/04 00:45:18;;;;;;;78.32;29.58;;;1.40;99.90;;;;;;5103433;28;20480;-51
2023/03/04 00:47:44;;;;;;;83.97;30.75;;;1.30;99.90;;;;;;5088747;28;20046;-50
2023/03/04 00:50:11;;;;;;;90.35;32.92;;;1.30;99.90;;;;;;5091022;28;20047;-50
2023/03/04 00:52:38;;;;;;;83.68;31.83;;;1.30;99.90;;;;;;5107414;28;20111;-51
2023/03/04 00:55:06;;;;;;;83.63;32.30;;;1.20;99.90;;;;;;5108630;28;20448;-49
2023/03/04 00:57:33;;;;;;;91.95;32.58;;;1.20;99.90;;;;;;5111333;28;20105;-51
2023/03/04 01:00:00;;;;;;;84.80;31.02;;;1.20;99.90;;;;;;5109744;28;20404;-48
2023/03/04 01:02:26;;;;;;;98.47;33.03;;;1.00;99.90;;;;;;5110495;28;20050;-50
2023/03/04 01:04:53;;;;;;;78.45;29.67;;;1.00;99.90;;;;;;5088735;28;20043;-49
2023/03/04 01:07:20;;;;;;;83.80;30.85;;;1.10;99.90;;;;;;5110719;28;20043;-48
2023/03/04 01:09:47;;;;;;;89.72;32.20;;;1.10;99.90;;;;;;5110094;28;20460;-51
2023/03/04 01:12:14;;;;;;;89.50;33.13;;;1.20;99.90;;;;;;5105068;27;20047;-49
2023/03/04 01:14:42;;;;;;;88.63;32.67;;;1.20;99.90;;;;;;5114453;28;20028;-49
2023/03/04 01:17:11;;;;;;;78.70;30.90;;;1.20;99.90;;;;;;5114891;28;20048;-49
2023/03/04 01:19:37;;;;;;;89.18;31.77;;;1.20;99.90;;;;;;5092141;28;20052;-50
2023/03/04 01:22:04;;;;;;;83.85;31.08;;;1.20;99.90;;;;;;5113422;28;20101;-51
2023/03/04 01:24:31;;;;;;;89.30;32.33;;;1.20;99.90;;;;;;5106876;28;20081;-50
2023/03/04 01:26:57;;;;;;;86.40;31.50;;;1.10;99.90;;;;;;5114303;28;20079;-49
2023/03/04 01:29:24;;;;;;;84.85;31.45;;;1.10;99.90;;;;;;5113259;28;20097;-51
2023/03/04 01:31:51;;;;;;;62.38;24.27;;;1.10;99.90;;;;;;5100393;28;20044;-49
2023/03/04 01:34:19;;;;;;;93.28;34.42;;;1.10;99.90;;;;;;5093587;28;20040;-49
2023/03/04 01:36:45;;;;;;;70.55;24.10;;;1.10;99.90;;;;;;5094893;28;20497;-48
2023/03/04 01:39:12;;;;;;;96.93;31.95;;;1.00;99.90;;;;;;5113852;28;20039;-50
2023/03/04 01:41:40;;;;;;;88.97;31.25;;;1.00;99.90;;;;;;5109735;27;20043;-46
2023/03/04 01:44:09;;;;;;;95.70;32.40;;;0.90;99.90;;;;;;5083039;22;20060;-48
2023/03/04 01:46:37;;;;;;;93.70;35.15;;;0.80;99.90;;;;;;5056669;28;20497;-51
2023/03/04 01:49:05;;;;;;;100.90;38.28;;;0.80;99.90;;;;;;5034611;28;20045;-49
2023/03/04 01:51:32;;;;;;;98.53;34.67;;;0.80;99.90;;;;;;5035401;28;20124;-50
2023/03/04 01:53:58;;;;;;;69.18;23.10;;;0.70;99.90;;;;;;5024078;28;20049;-50
2023/03/04 01:56:34;;;;;;;90.50;31.30;;;0.70;99.90;;;;;;5043666;28;20047;-48
2023/03/04 01:59:15;;;;;;;95.00;33.22;;;0.70;99.90;;;;;;5048586;28;20132;-49
2023/03/04 02:01:48;;;;;;;89.80;30.60;;;0.70;99.90;;;;;;5041433;28;20045;-50
2023/03/04 02:04:17;;;;;;;83.70;30.25;;;0.70;99.90;;;;;;5035486;28;20071;-48
2023/03/04 02:06:45;;;;;;;80.68;30.65;;;0.80;99.90;;;;;;5037462;28;20095;-49
2023/03/04 02:09:13;;;;;;;77.80;29.13;;;0.80;99.90;;;;;;5033833;28;20703;-50
2023/03/04 02:11:40;;;;;;;76.93;28.98;;;0.90;99.90;;;;;;5048685;28;20056;-51
2023/03/04 02:14:07;;;;;;;75.05;27.90;;;0.90;99.90;;;;;;5053368;28;20063;-48
2023/03/04 02:16:34;;;;;;;79.45;27.77;;;0.90;99.90;;;;;;5034197;28;20044;-48
2023/03/04 02:19:04;;;;;;;79.88;27.55;;;1.00;99.90;;;;;;5045322;28;20044;-51
2023/03/04 02:21:33;;;;;;;78.35;26.48;;;1.00;99.90;;;;;;5029075;28;20071;-52
2023/03/04 02:24:18;;;;;;;72.78;25.58;;;1.10;99.90;;;;;;5053338;28;20037;-49
2023/03/04 02:26:45;;;;;;;69.63;24.33;;;1.10;99.90;;;;;;5034445;28;20038;-49
2023/03/04 02:29:14;;;;;;;;;;;1.20;99.90;;;;;;5036961;28;20402;-48
2023/03/04 02:31:44;;;;;;;68.05;24.85;;;1.20;99.90;;;;;;5032755;28;19921;-48
2023/03/04 02:34:27;;;;;;;75.20;25.48;;;1.20;99.90;;;;;;5014462;28;20132;-51
2023/03/04 02:36:55;;;;;;;70.72;25.45;;;1.20;99.90;;;;;;5015735;28;20049;-48
2023/03/04 02:39:31;;;;;;;66.50;23.20;;;1.10;99.90;;;;;;5044325;28;20046;-48
2023/03/04 02:41:59;;;;;;;78.30;29.23;;;1.00;99.90;;;;;;5050451;28;20056;-52
2023/03/04 02:44:30;;;;;;;78.20;29.35;;;0.90;99.90;;;;;;5043668;28;20096;-50
2023/03/04 02:46:58;;;;;;;75.55;29.55;;;0.80;99.90;;;;;;5033171;28;20038;-50
2023/03/04 02:49:28;;;;;;;79.35;28.45;;;0.70;99.90;;;;;;5019343;28;20045;-50
2023/03/04 02:52:05;;;;;;;76.65;28.33;;;0.60;99.90;;;;;;5020756;28;20041;-51
2023/03/04 02:54:32;;;;;;;59.30;20.50;;;0.60;99.90;;;;;;5042675;28;20033;-47
2023/03/04 02:57:03;;;;;;;79.43;26.70;;;0.60;99.90;;;;;;5041756;28;20275;-52
2023/03/04 02:59:33;;;;;;;77.32;25.80;;;0.60;99.90;;;;;;5035298;28;20041;-52
2023/03/04 03:02:00;;;;;;;71.40;26.38;;;0.60;99.90;;;;;;5038676;28;20048;-53
2023/03/04 03:04:27;;;;;;;81.10;27.20;;;0.70;99.90;;;;;;5026198;28;20037;-51
2023/03/04 03:06:54;;;;;;;78.78;23.90;;;0.70;99.90;;;;;;5050769;28;20045;-49
2023/03/04 03:09:21;;;;;;;64.93;24.70;;;0.80;99.90;;;;;;5050679;28;20452;-52
2023/03/04 03:11:48;;;;;;;67.32;24.17;;;0.80;99.90;;;;;;5026380;28;20055;-47
2023/03/04 03:14:15;;;;;;;68.25;23.55;;;0.80;99.90;;;;;;5033781;28;20051;-50
2023/03/04 03:16:42;;;;;;;;;;;0.80;99.90;;;;;;5034630;28;20416;-50
2023/03/04 03:19:09;;;;;;;62.08;21.63;;;0.80;99.90;;;;;;5025849;28;19965;-48
2023/03/04 03:21:37;;;;;;;56.60;19.50;;;0.90;99.90;;;;;;5033437;28;20045;-51
2023/03/04 03:24:04;;;;;;;59.10;21.40;;;0.90;99.90;;;;;;5016910;28;20045;-51
2023/03/04 03:26:31;;;;;;;61.70;22.77;;;0.90;99.90;;;;;;5014217;28;20099;-48
2023/03/04 03:28:57;;;;;;;67.57;24.63;;;0.90;99.90;;;;;;5031075;28;20042;-48
2023/03/04 03:31:26;;;;;;;61.63;25.00;;;0.80;99.90;;;;;;5026180;28;20425;-52
2023/03/04 03:33:53;;;;;;;68.85;24.25;;;0.70;99.90;;;;;;5047288;28;20048;-48
2023/03/04 03:36:20;;;;;;;48.17;17.63;;;0.70;99.90;;;;;;5052129;28;20075;-51
2023/03/04 03:38:47;;;;;;;64.60;23.73;;;0.70;99.90;;;;;;5049303;28;20451;-51
2023/03/04 03:41:13;;;;;;;56.17;21.70;;;0.80;99.90;;;;;;5032230;28;20068;-49
2023/03/04 03:43:40;;;;;;;48.10;16.80;;;0.80;99.90;;;;;;5030816;28;20088;-53
2023/03/04 03:46:07;;;;;;;67.50;23.08;;;0.90;99.90;;;;;;5031981;28;20580;-50
2023/03/04 03:48:33;;;;;;;65.50;23.80;;;0.90;99.90;;;;;;5039286;28;20041;-50
2023/03/04 03:51:00;;;;;;;46.38;17.33;;;0.90;99.90;;;;;;5049448;28;20057;-51
2023/03/04 03:53:27;;;;;;;72.32;23.85;;;0.90;99.90;;;;;;5050680;28;20037;-50
2023/03/04 03:55:54;;;;;;;80.18;28.27;;;0.90;99.90;;;;;;5050377;28;20110;-51
2023/03/04 03:58:22;;;;;;;56.60;20.52;;;0.80;99.90;;;;;;5043722;28;20409;-52
2023/03/04 04:00:48;;;;;;;81.22;29.38;;;0.80;99.90;;;;;;5048654;28;20572;-49
2023/03/04 04:03:16;;;;;;;58.33;19.48;;;0.80;99.90;;;;;;5050979;28;20049;-53
2023/03/04 04:05:42;;;;;;;71.50;27.13;;;0.80;99.90;;;;;;5048415;28;20072;-53
2023/03/04 04:08:14;;;;;;;61.25;19.30;;;0.80;99.90;;;;;;5031210;28;20112;-52
2023/03/04 04:10:41;;;;;;;82.75;29.23;;;0.80;99.90;;;;;;5043653;28;20045;-50
2023/03/04 04:13:08;;;;;;;73.18;27.85;;;0.80;99.90;;;;;;5050318;28;20099;-50
2023/03/04 04:15:37;;;;;;;67.75;26.77;;;0.80;99.90;;;;;;5050854;28;20181;-52
2023/03/04 04:18:05;;;;;;;86.82;29.13;;;0.80;99.90;;;;;;5050606;28;20063;-50
2023/03/04 04:20:33;;;;;;;81.38;28.92;;;0.90;99.90;;;;;;5042606;28;20624;-51
2023/03/04 04:22:59;;;;;;;82.35;30.38;;;0.90;99.90;;;;;;5048569;28;20397;-51
2023/03/04 04:25:26;;;;;;;84.45;30.73;;;0.90;99.90;;;;;;5044344;28;20501;-48
2023/03/04 04:27:53;;;;;;;60.38;21.42;;;0.90;99.90;;;;;;5039256;28;20041;-52
2023/03/04 04:30:20;;;;;;;82.10;27.35;;;0.90;99.90;;;;;;5040536;28;20037;-50
2023/03/04 04:32:46;;;;;;;74.72;27.77;;;0.90;99.90;;;;;;5029740;28;20045;-50
2023/03/04 04:35:13;;;;;;;72.82;25.73;;;0.90;99.90;;;;;;5043862;28;20451;-54
2023/03/04 04:37:40;;;;;;;71.50;24.63;;;0.90;99.90;;;;;;5036208;28;20045;-49
2023/03/04 04:40:07;;;;;;;77.53;28.08;;;0.90;99.90;;;;;;5029454;28;20057;-48
2023/03/04 04:42:34;;;;;;;;;;;0.90;99.90;;;;;;5031300;28;20045;-50
2023/03/04 04:45:01;;;;;;;61.65;23.58;;;0.80;99.90;;;;;;5036352;28;19920;-50
2023/03/04 04:47:27;;;;;;;66.85;23.50;;;0.80;99.90;;;;;;5042636;28;20041;-50
2023/03/04 04:49:54;;;;;;;54.28;18.73;;;0.80;99.90;;;;;;5047775;28;20073;-51
2023/03/04 04:52:21;;;;;;;66.82;24.88;;;0.70;99.90;;;;;;5030970;28;20045;-51
2023/03/04 04:54:48;;;;;;;41.55;16.30;;;0.70;99.90;;;;;;5029789;28;20087;-51
2023/03/04 04:57:14;;;;;;;46.25;16.92;;;0.70;99.90;;;;;;5031130;28;20049;-50
2023/03/04 04:59:41;;;;;;;60.45;22.60;;;0.60;99.90;;;;;;5039676;28;20041;-53
2023/03/04 05:02:08;;;;;;;52.25;16.40;;;0.60;99.90;;;;;;5042314;28;20060;-50
2023/03/04 05:04:34;;;;;;;58.20;22.70;;;0.60;99.90;;;;;;5049903;28;20154;-50
2023/03/04 05:07:01;;;;;;;57.28;21.73;;;0.60;99.90;;;;;;5039999;28;20037;-51
2023/03/04 05:09:28;;;;;;;58.47;21.80;;;0.50;99.90;;;;;;5029324;28;20046;-49
2023/03/04 05:11:55;;;;;;;41.00;15.80;;;0.50;99.90;;;;;;5030736;28;20046;-49
2023/03/04 05:14:21;;;;;;;63.75;21.70;;;0.50;99.90;;;;;;5040545;28;20044;-48
2023/03/04 05:16:48;;;;;;;63.78;22.67;;;0.50;99.90;;;;;;5042543;28;20049;-48
2023/03/04 05:19:15;;;;;;;58.88;21.13;;;0.40;99.90;;;;;;5049322;28;20076;-50
2023/03/04 05:21:42;;;;;;;61.72;22.63;;;0.40;99.90;;;;;;5049716;28;20041;-50
2023/03/04 05:24:08;;;;;;;60.72;22.02;;;0.40;99.90;;;;;;5030477;28;20092;-52
2023/03/04 05:26:36;;;;;;;63.30;21.63;;;0.40;99.90;;;;;;5030543;28;20041;-49
2023/03/04 05:29:03;;;;;;;72.18;24.35;;;0.40;99.90;;;;;;5029278;28;20406;-53
2023/03/04 05:31:30;;;;;;;;;;;0.40;99.90;;;;;;5036387;28;20045;-52
2023/03/04 05:33:56;;;;;;;63.28;21.50;;;0.30;99.90;;;;;;5031860;28;19948;-50
2023/03/04 05:36:23;;;;;;;60.63;23.92;;;0.30;99.90;;;;;;5037145;28;20451;-53
2023/03/04 05:38:50;;;;;;;70.20;29.02;;;0.40;99.90;;;;;;5048535;28;20173;-50
2023/03/04 05:41:21;;;;;;;49.17;19.50;;;0.40;99.90;;;;;;5045044;28;20045;-52
2023/03/04 05:43:49;;;;;;;51.88;21.65;;;0.40;99.90;;;;;;5029445;28;20092;-50
2023/03/04 05:46:17;;;;;;;48.83;19.65;;;0.50;99.90;;;;;;5029554;28;20069;-51
2023/03/04 05:48:44;;;;;;;56.40;23.90;;;0.60;99.90;;;;;;5029870;28;20379;-53
2023/03/04 05:51:11;;;;;;;38.67;16.40;;;0.60;99.90;;;;;;5041073;28;20092;-50
2023/03/04 05:53:39;;;;;;;38.15;15.60;;;0.60;99.90;;;;;;5049550;28;20049;-51
2023/03/04 05:56:08;;;;;;;50.58;20.08;;;0.50;99.90;;;;;;5050249;28;20460;-50
2023/03/04 05:58:35;;;;;;;48.47;18.95;;;0.50;99.90;;;;;;5051523;28;20098;-53
2023/03/04 06:01:03;;;;;;;47.33;19.15;;;0.50;99.90;;;;;;5049803;28;20036;-53
2023/03/04 06:03:30;;;;;;;61.55;22.30;;;0.50;99.90;;;;;;5033158;28;20486;-51
2023/03/04 06:05:57;;;;;;;65.63;24.67;;;0.50;99.90;;;;;;5032360;28;20041;-52
2023/03/04 06:08:24;;;;;;;62.95;23.67;;;0.50;99.90;;;;;;5033070;28;20042;-51
2023/03/04 06:10:52;;;;;;;;;;;0.60;99.90;;;;;;5045883;28;20041;-53
2023/03/04 06:13:58;;;;;;;50.13;18.17;;;0.60;99.90;;;;;;5045515;28;20456;-49
2023/03/04 06:16:25;;;;;;;61.92;23.17;;;0.70;99.90;;;;;;5051492;28;20058;-49
2023/03/04 06:18:52;;;;;;;62.15;25.27;;;0.70;99.90;;;;;;5036587;28;20049;-50
2023/03/04 06:21:19;;;;;;;51.42;21.27;;;0.70;99.90;;;;;;5032056;28;20083;-50
2023/03/04 06:23:46;;;;;;;78.82;28.40;;;0.80;99.90;;;;;;5033744;28;20045;-54
2023/03/04 06:26:14;;;;;;;75.30;27.63;;;0.80;99.90;;;;;;5042831;28;20102;-49
2023/03/04 06:28:42;;;;;;;79.85;30.13;;;0.90;99.90;;;;;;5044788;28;20041;-52
2023/03/04 06:31:08;;;;;;;88.82;30.30;;;1.00;99.90;;;;;;5038987;28;20083;-52
2023/03/04 06:33:36;;;;;;;62.45;24.33;;;1.10;99.90;;;;;;5033164;28;20037;-50
2023/03/04 06:36:02;;;;;;;61.80;22.05;;;1.10;99.90;;;;;;5032148;28;20073;-51
2023/03/04 06:38:29;;;;;;;64.18;23.88;;;1.00;99.90;;;;;;5046255;28;20048;-50
2023/03/04 06:40:56;;;;;;;47.38;17.77;;;1.00;99.90;;;;;;5043931;28;20037;-50
2023/03/04 06:43:23;;;;;;;57.90;23.00;;;1.00;99.90;;;;;;5053042;28;20091;-50
2023/03/04 06:45:50;;;;;;;44.97;16.58;;;1.10;99.90;;;;;;5050594;28;20400;-52
2023/03/04 06:48:16;;;;;;;57.15;22.00;;;1.00;99.90;;;;;;5032599;28;20533;-51
2023/03/04 06:50:43;;;;;;;53.63;21.60;;;1.00;99.90;;;;;;5031748;28;20107;-51
2023/03/04 06:53:10;;;;;;;48.75;19.90;;;1.10;99.90;;;;;;5032920;28;20087;-53
2023/03/04 06:55:36;;;;;;;35.33;15.23;;;1.10;99.90;;;;;;5040658;28;20068;-50
2023/03/04 06:58:03;;;;;;;66.43;23.27;;;1.20;99.90;;;;;;5050572;28;20045;-51
2023/03/04 07:00:30;;;;;;;60.85;23.60;;;1.30;99.90;;;;;;5050232;28;20128;-51
2023/03/04 07:02:58;;;;;;;56.25;22.17;;;1.40;99.90;;;;;;5036253;28;20053;-52
2023/03/04 07:05:24;;;;;;;59.20;23.15;;;1.50;99.90;;;;;;5051285;28;20175;-51
2023/03/04 07:07:51;;;;;;;62.75;24.77;;;1.60;99.90;;;;;;5052808;28;20045;-49
2023/03/04 07:10:18;;;;;;;45.47;17.42;;;1.60;99.90;;;;;;5047199;28;20117;-52
2023/03/04 07:12:45;;;;;;;64.57;25.55;;;1.70;99.90;;;;;;5048005;28;20045;-52
2023/03/04 07:15:12;;;;;;;75.80;29.67;;;1.80;99.90;;;;;;5034031;28;20502;-52
2023/03/04 07:17:39;;;;;;;74.75;29.35;;;1.80;99.90;;;;;;5044533;28;20099;-50
2023/03/04 07:20:06;;;;;;;75.88;30.52;;;1.90;99.90;;;;;;5041158;28;20049;-51
2023/03/04 07:22:33;;;;;;;72.80;29.13;;;1.90;99.90;;;;;;5052261;28;20402;-54
2023/03/04 07:24:59;;;;;;;53.95;21.23;;;2.00;99.90;;;;;;5044465;28;20045;-51
2023/03/04 07:27:26;;;;;;;80.13;27.70;;;2.10;99.90;;;;;;5044835;28;20095;-50
2023/03/04 07:29:53;;;;;;;65.20;25.90;;;2.20;99.90;;;;;;5051480;28;20091;-50
2023/03/04 07:32:19;;;;;;;47.60;20.45;;;2.20;99.90;;;;;;5031070;28;20052;-51
2023/03/04 07:34:46;;;;;;;58.88;24.27;;;2.30;99.90;;;;;;5047538;28;20040;-52
2023/03/04 07:37:13;;;;;;;64.82;24.45;;;2.40;99.90;;;;;;5033346;28;20045;-52
2023/03/04 07:39:40;;;;;;;74.60;31.20;;;2.50;99.90;;;;;;5042530;28;20049;-52
2023/03/04 07:42:06;;;;;;;71.10;29.50;;;2.50;99.90;;;;;;5038360;28;20107;-51
2023/03/04 07:45:29;;;;;;;55.97;23.02;;;2.60;99.90;;;;;;5100310;22;20047;-54
2023/03/04 07:47:57;;;;;;;65.97;23.67;;;2.50;99.90;;;;;;5116998;27;20457;-52
2023/03/04 07:50:24;;;;;;;56.92;23.58;;;2.50;99.90;;;;;;5153357;27;20046;-56
2023/03/04 07:52:51;;;;;;;43.25;17.80;;;2.50;99.90;;;;;;5124818;27;20040;-54
2023/03/04 07:55:18;;;;;;;47.97;19.27;;;2.50;99.90;;;;;;5105087;28;20040;-51
2023/03/04 07:57:46;;;;;;;66.97;26.08;;;2.70;99.90;;;;;;5110952;27;20542;-54
2023/03/04 08:00:15;;;;;;;61.15;25.50;;;2.80;99.90;;;;;;5130503;27;20088;-51
2023/03/04 08:02:42;;;;;;;58.65;24.83;;;2.90;99.90;;;;;;5100421;28;20093;-52
2023/03/04 08:05:09;;;;;;;57.53;24.75;;;3.00;99.90;;;;;;5099700;28;20118;-53
2023/03/04 08:07:36;;;;;;;61.13;25.10;;;3.10;99.90;;;;;;5107814;27;20040;-54
2023/03/04 08:10:03;;;;;;;59.05;25.02;;;3.10;99.90;;;;;;5104331;27;20503;-52
2023/03/04 08:12:30;;;;;;;68.35;26.52;;;3.20;99.90;;;;;;5108802;27;20048;-50
2023/03/04 08:14:57;;;;;;;65.68;25.58;;;3.30;99.90;;;;;;5104439;27;20487;-53
2023/03/04 08:17:23;;;;;;;45.40;19.52;;;3.40;99.90;;;;;;5097916;28;20039;-54
2023/03/04 08:19:51;;;;;;;63.42;26.67;;;3.50;99.90;;;;;;5100577;28;20049;-52
2023/03/04 08:22:18;;;;;;;54.53;22.85;;;3.60;99.90;;;;;;5099540;28;20070;-53
2023/03/04 08:24:45;;;;;;;61.70;25.48;;;3.80;99.90;;;;;;5100723;28;20105;-53
2023/03/04 08:27:11;;;;;;;61.20;26.50;;;3.90;99.90;;;;;;5100039;28;20710;-52
2023/03/04 08:29:38;;;;;;;47.60;20.17;;;3.90;99.90;;;;;;5106571;27;20392;-55
2023/03/04 08:32:05;;;;;;;57.45;24.35;;;4.00;99.90;;;;;;5108048;28;20043;-53
2023/03/04 08:34:32;;;;;;;64.70;24.63;;;4.20;99.90;;;;;;5091131;28;20040;-51
2023/03/04 08:36:58;;;;;;;44.38;18.25;;;4.30;99.90;;;;;;5096464;28;20061;-54
2023/03/04 08:39:25;;;;;;;68.55;27.25;;;4.30;99.90;;;;;;5106112;28;20381;-50
2023/03/04 08:41:52;;;;;;;66.25;28.75;;;4.40;99.90;;;;;;5105484;28;20085;-51
2023/03/04 08:44:18;;;;;;;75.35;28.48;;;4.50;99.90;;;;;;5107412;28;20036;-54
2023/03/04 08:46:45;;;;;;;57.80;25.20;;;4.60;99.90;;;;;;5107653;28;20103;-53
2023/03/04 08:49:13;;;;;;;62.78;25.35;;;4.70;99.90;;;;;;5109329;28;20062;-52
2023/03/04 08:51:40;;;;;;;66.25;27.17;;;4.80;99.90;;;;;;5089118;28;20053;-52
2023/03/04 08:54:07;;;;;;;56.72;25.95;;;5.00;99.90;;;;;;5098853;28;20039;-53
2023/03/04 08:56:33;;;;;;;61.75;28.42;;;5.10;99.90;;;;;;5088776;28;20451;-55
2023/03/04 08:59:00;;;;;;;58.47;27.60;;;5.20;99.90;;;;;;5100011;28;20043;-51
2023/03/04 09:01:27;;;;;;;58.30;25.50;;;5.20;99.90;;;;;;5099196;28;20047;-53
2023/03/04 09:03:54;;;;;;;60.42;26.83;;;5.30;99.90;;;;;;5101193;28;20052;-49
2023/03/04 09:06:20;;;;;;;61.85;26.70;;;5.30;99.90;;;;;;5102926;28;20071;-50
2023/03/04 09:08:47;;;;;;;67.28;27.30;;;5.30;99.90;;;;;;5103966;28;20675;-52
2023/03/04 09:11:14;;;;;;;65.97;29.33;;;5.40;99.90;;;;;;5104605;28;20085;-50
2023/03/04 09:13:41;;;;;;;68.90;27.33;;;5.50;99.90;;;;;;5110204;28;20128;-49
2023/03/04 09:16:13;;;;;;;61.33;28.20;;;5.60;99.90;;;;;;5107414;28;20747;-51
2023/03/04 09:18:41;;;;;;;62.67;28.02;;;5.80;99.90;;;;;;5097652;28;20373;-51
2023/03/04 09:21:08;;;;;;;59.58;27.33;;;5.90;99.90;;;;;;5108078;28;20043;-49
2023/03/04 09:23:35;;;;;;;;;;;6.00;99.90;;;;;;5103960;28;20048;-49
2023/03/04 09:26:17;;;;;;;63.50;27.63;;;6.10;99.90;;;;;;5105378;28;20014;-50
2023/03/04 09:28:44;;;;;;;63.20;28.80;;;6.20;99.90;;;;;;5102986;28;20511;-54
2023/03/04 09:31:13;;;;;;;63.25;28.73;;;6.30;99.90;;;;;;5102619;28;20050;-52
2023/03/04 09:33:41;;;;;;;62.97;27.42;;;6.50;99.90;;;;;;5106674;28;20194;-50
2023/03/04 09:36:11;;;;;;;62.22;28.13;;;6.60;99.90;;;;;;5114104;28;20039;-51
2023/03/04 09:38:38;;;;;;;61.22;28.15;;;6.60;99.90;;;;;;5106830;28;20090;-51
2023/03/04 09:41:09;;;;;;;;;;;6.70;99.90;;;;;;5103615;28;20097;-52
2023/03/04 09:43:38;;;;;;;52.10;24.23;;;6.80;99.90;;;;;;5104522;27;20037;-52
2023/03/04 09:46:14;;;;;;;54.92;26.75;;;6.90;99.90;;;;;;5104856;27;20079;-52
2023/03/04 09:48:51;;;;;;;56.60;25.45;;;7.00;99.90;;;;;;5101048;28;20046;-49
2023/03/04 09:51:36;;;;;;;50.60;22.70;;;7.00;99.90;;;;;;5105801;28;20097;-51
2023/03/04 09:54:28;;;;;;;47.92;21.85;;;7.20;99.90;;;;;;5107722;27;20100;-50
2023/03/04 09:57:13;;;;;;;49.13;22.17;;;7.50;99.90;;;;;;5105156;27;20036;-50
2023/03/04 09:59:54;;;;;;;51.22;23.15;;;7.60;99.90;;;;;;5103716;28;20579;-52
2023/03/04 10:02:43;;;;;;;48.65;21.95;;;7.80;99.90;;;;;;5105458;27;20070;-50
2023/03/04 10:05:20;;;;;;;48.20;21.95;;;8.00;99.90;;;;;;5108592;27;20040;-52
2023/03/04 10:07:55;;;;;;;54.88;23.65;;;8.20;99.90;;;;;;5090055;28;20047;-52
2023/03/04 10:10:30;;;;;;;52.60;22.77;;;8.30;99.90;;;;;;5108669;27;20047;-50
2023/03/04 10:13:00;;;;;;;49.72;23.10;;;8.40;99.90;;;;;;5103987;27;20112;-50
2023/03/04 10:15:35;;;;;;;49.90;24.15;;;8.50;99.90;;;;;;5102320;28;20036;-50
2023/03/04 10:18:13;;;;;;;48.78;23.38;;;8.60;99.90;;;;;;5103090;28;20039;-53
2023/03/04 10:21:06;;;;;;;;;;;8.50;99.90;;;;;;5091323;28;20043;-51
2023/03/04 10:23:34;;;;;;;58.03;23.45;;;8.60;99.90;;;;;;5099482;28;20331;-51
2023/03/04 10:26:12;;;;;;;48.30;22.58;;;8.50;99.90;;;;;;5102015;28;20553;-49
2023/03/04 10:28:39;;;;;;;51.80;23.63;;;8.30;99.90;;;;;;5100889;28;20036;-51
2023/03/04 10:31:26;;;;;;;48.75;22.35;;;8.50;99.90;;;;;;5103569;28;20063;-53
2023/03/04 10:33:52;;;;;;;46.80;22.40;;;8.60;99.90;;;;;;5103576;27;20044;-54
2023/03/04 10:36:28;;;;;;;45.60;21.23;;;8.70;99.90;;;;;;5100153;27;20105;-49
2023/03/04 10:39:17;;;;;;;50.88;23.13;;;8.70;99.90;;;;;;5105628;27;20039;-53
2023/03/04 10:41:54;;;;;;;46.00;23.45;;;8.80;99.90;;;;;;5095522;28;20381;-50
2023/03/04 10:44:22;;;;;;;50.10;23.38;;;8.90;99.90;;;;;;5107418;28;20510;-51
2023/03/04 10:46:51;;;;;;;46.72;21.13;;;9.00;99.90;;;;;;5097745;28;20047;-50
2023/03/04 10:49:19;;;;;;;52.95;22.17;;;9.10;99.90;;;;;;5098304;28;20063;-52
2023/03/04 10:52:14;;;;;;;55.83;22.85;;;9.30;99.90;;;;;;5095851;28;20496;-49
2023/03/04 10:54:49;;;;;;;51.22;25.15;;;9.50;99.90;;;;;;5104772;28;20055;-50
2023/03/04 10:57:20;;;;;;;54.97;24.23;;;9.30;99.90;;;;;;5099662;28;20115;-54
2023/03/04 10:59:52;;;;;;;58.20;24.80;;;9.00;99.90;;;;;;5102441;27;20492;-50
2023/03/04 11:02:23;;;;;;;53.85;24.08;;;8.80;99.90;;;;;;5097041;28;20574;-53
2023/03/04 11:04:52;;;;;;;56.17;24.73;;;8.70;99.90;;;;;;5096190;28;20401;-54
2023/03/04 11:07:21;;;;;;;51.03;22.95;;;8.50;99.90;;;;;;5101334;28;20118;-52
2023/03/04 11:09:48;;;;;;;56.80;23.77;;;8.50;99.90;;;;;;5099591;28;20377;-51
2023/03/04 11:12:19;;;;;;;49.20;23.95;;;8.60;99.90;;;;;;5101069;28;20072;-49
2023/03/04 11:14:51;;;;;;;55.13;23.40;;;8.40;99.90;;;;;;5100692;28;20047;-53
2023/03/04 11:17:21;;;;;;;44.40;20.98;;;8.40;99.90;;;;;;5101393;28;20370;-50
2023/03/04 11:20:13;;;;;;;48.00;22.77;;;8.20;99.90;;;;;;5097781;28;20499;-51
2023/03/04 11:22:42;;;;;;;46.72;20.48;;;8.00;99.90;;;;;;5109948;27;20511;-51
2023/03/04 11:25:25;;;;;;;49.08;22.00;;;8.00;99.90;;;;;;5099561;28;20096;-51
2023/03/04 11:28:05;;;;;;;52.80;23.15;;;8.00;99.90;;;;;;5097594;28;20097;-49
2023/03/04 11:30:42;;;;;;;47.97;22.48;;;8.10;99.90;;;;;;5111387;28;20549;-53
2023/03/04 11:33:40;;;;;;;50.10;23.40;;;8.20;99.90;;;;;;5102424;28;20081;-52
2023/03/04 11:36:28;;;;;;;56.10;23.92;;;8.20;99.90;;;;;;5112788;28;20127;-53
2023/03/04 11:38:56;;;;;;;55.40;25.48;;;8.30;99.90;;;;;;5106386;27;20040;-53
2023/03/04 11:41:46;;;;;;;53.28;24.17;;;8.30;99.90;;;;;;5104637;27;20078;-52
2023/03/04 11:44:13;;;;;;;57.47;24.98;;;8.30;99.90;;;;;;5110561;27;20035;-52
2023/03/04 11:46:59;;;;;;;57.08;26.48;;;8.30;99.90;;;;;;5132240;27;20075;-51
2023/03/04 11:49:56;;;;;;;64.20;26.92;;;8.30;99.90;;;;;;5091190;28;20040;-52
2023/03/04 11:52:50;;;;;;;56.97;27.10;;;8.50;99.90;;;;;;5100166;28;20040;-54
2023/03/04 11:55:44;;;;;;;63.88;25.50;;;8.60;99.90;;;;;;5097188;28;20098;-52
2023/03/04 11:58:28;;;;;;;53.28;24.75;;;8.70;99.90;;;;;;5112661;27;20047;-53
2023/03/04 12:01:41;;;;;;;51.78;25.02;;;8.90;99.90;;;;;;5132752;27;20043;-53
2023/03/04 12:04:21;;;;;;;54.20;25.63;;;8.70;99.90;;;;;;5091497;28;20040;-53
2023/03/04 12:07:08;;;;;;;57.00;25.15;;;8.50;99.90;;;;;;5092690;28;20062;-54
2023/03/04 12:10:08;;;;;;;53.92;24.73;;;8.20;99.90;;;;;;5109945;27;20067;-54
2023/03/04 12:13:12;;;;;;;52.60;24.38;;;8.30;99.90;;;;;;5103058;27;20079;-52
2023/03/04 12:15:45;;;;;;;52.50;24.88;;;8.50;99.90;;;;;;5099551;28;20119;-50
2023/03/04 12:18:19;;;;;;;56.22;26.52;;;8.60;99.90;;;;;;5098354;28;20045;-50
2023/03/04 12:20:49;;;;;;;57.75;26.10;;;8.60;99.90;;;;;;5099106;27;20044;-52
2023/03/04 12:23:47;;;;;;;52.50;24.90;;;8.50;99.90;;;;;;5101917;27;20097;-51
2023/03/04 12:26:16;;;;;;;59.63;25.30;;;8.40;99.90;;;;;;5102312;28;20491;-50
2023/03/04 12:29:02;;;;;;;59.70;27.45;;;8.30;99.90;;;;;;5096216;28;20294;-52
2023/03/04 12:31:41;;;;;;;51.85;25.10;;;8.40;99.90;;;;;;5096871;28;20036;-54
2023/03/04 12:34:29;;;;;;;63.80;27.42;;;8.60;99.90;;;;;;5105403;28;20074;-54
2023/03/04 12:37:14;;;;;;;56.53;26.70;;;8.70;99.90;;;;;;5099631;28;20039;-51
2023/03/04 12:40:15;;;;;;;58.65;26.33;;;8.90;99.90;;;;;;5100657;28;20052;-51
2023/03/04 12:43:06;;;;;;;57.28;27.45;;;9.00;99.90;;;;;;5095997;28;20044;-52
2023/03/04 12:45:48;;;;;;;63.55;28.38;;;9.00;99.90;;;;;;5100314;28;20073;-50
2023/03/04 12:48:20;;;;;;;63.30;28.13;;;9.20;99.90;;;;;;5104199;28;20083;-54
2023/03/04 12:50:58;;;;;;;60.03;28.45;;;9.10;99.90;;;;;;5100555;28;20040;-51
2023/03/04 12:53:31;;;;;;;65.40;29.98;;;9.00;99.90;;;;;;5098973;28;20048;-50
2023/03/04 12:55:58;;;;;;;65.97;29.65;;;9.00;99.90;;;;;;5106145;28;20039;-52
2023/03/04 12:58:29;;;;;;;;;;;9.10;99.90;;;;;;5098494;28;20060;-53